createdAt,value
2022-08-23T00:00:28.072Z,3.70
2022-08-23T00:03:15.751Z,3.92
2022-08-23T00:06:01.922Z,3.75
2022-08-23T00:08:48.938Z,3.88
2022-08-23T00:11:34.737Z,4.03
2022-08-23T00:14:28.135Z,4.15
2022-08-23T00:17:33.225Z,4.03
2022-08-23T00:20:20.410Z,3.92
2022-08-23T00:23:06.212Z,4.00
2022-08-23T00:25:51.695Z,4.53
2022-08-23T00:28:37.547Z,3.80
2022-08-23T00:31:23.403Z,4.13
2022-08-23T00:34:08.989Z,4.10
2022-08-23T00:36:57.566Z,3.95
2022-08-23T00:39:45.072Z,4.28
2022-08-23T00:43:21.098Z,4.05
2022-08-23T00:46:46.003Z,3.92
2022-08-23T00:49:33.451Z,3.88
2022-08-23T00:52:29.329Z,3.92
2022-08-23T00:55:16.969Z,3.80
2022-08-23T00:58:03.373Z,3.90
2022-08-23T01:00:51.775Z,3.85
2022-08-23T01:03:41.083Z,4.53
2022-08-23T01:06:36.764Z,4.35
2022-08-23T01:09:23.068Z,4.20
2022-08-23T01:12:32.991Z,4.18
2022-08-23T01:18:19.886Z,3.97
2022-08-23T01:21:26.595Z,4.47
2022-08-23T01:24:18.092Z,4.03
2022-08-23T01:27:20.151Z,4.05
2022-08-23T01:30:08.936Z,4.15
2022-08-23T01:33:02.291Z,4.30
2022-08-23T01:35:57.007Z,3.72
2022-08-23T01:38:42.696Z,4.53
2022-08-23T01:41:28.473Z,4.47
2022-08-23T01:44:15.038Z,5.32
2022-08-23T01:47:01.232Z,4.00
2022-08-23T01:49:48.371Z,4.72
2022-08-23T01:52:36.531Z,4.13
2022-08-23T01:55:23.375Z,4.13
2022-08-23T01:58:09.697Z,4.25
2022-08-23T02:00:55.865Z,4.82
2022-08-23T02:03:42.233Z,5.03
2022-08-23T02:06:28.290Z,4.20
2022-08-23T02:09:17.800Z,4.35
2022-08-23T02:12:04.681Z,4.65
2022-08-23T02:14:51.021Z,4.47
2022-08-23T02:17:41.274Z,4.30
2022-08-23T02:20:27.060Z,4.63
2022-08-23T02:23:13.277Z,4.07
2022-08-23T02:25:59.141Z,4.60
2022-08-23T02:28:46.057Z,4.60
2022-08-23T02:31:31.646Z,4.80
2022-08-23T02:34:18.672Z,4.10
2022-08-23T02:37:05.156Z,4.63
2022-08-23T02:39:51.444Z,4.63
2022-08-23T02:42:37.175Z,4.60
2022-08-23T02:45:22.863Z,4.72
2022-08-23T02:48:09.644Z,4.50
2022-08-23T02:51:11.016Z,4.47
2022-08-23T02:53:57.519Z,4.53
2022-08-23T02:56:44.185Z,4.40
2022-08-23T02:59:30.327Z,4.57
2022-08-23T03:02:16.591Z,5.07
2022-08-23T03:05:03.310Z,4.90
2022-08-23T03:07:49.003Z,4.75
2022-08-23T03:10:35.276Z,4.50
2022-08-23T03:13:21.742Z,4.70
2022-08-23T03:16:10.167Z,4.93
2022-08-23T03:19:02.397Z,4.80
2022-08-23T03:21:48.508Z,4.25
2022-08-23T03:24:37.987Z,4.75
2022-08-23T03:27:23.786Z,4.90
2022-08-23T03:30:15.498Z,4.55
2022-08-23T03:33:07.213Z,5.43
2022-08-23T03:35:57.863Z,4.90
2022-08-23T03:38:45.387Z,4.28
2022-08-23T03:41:31.614Z,5.45
2022-08-23T03:44:17.220Z,4.50
2022-08-23T03:47:05.946Z,4.55
2022-08-23T03:49:51.931Z,4.80
2022-08-23T03:52:37.582Z,4.70
2022-08-23T03:55:23.387Z,5.32
2022-08-23T03:58:11.304Z,4.68
2022-08-23T04:00:57.702Z,5.20
2022-08-23T04:03:44.212Z,4.78
2022-08-23T04:06:31.954Z,5.60
2022-08-23T04:09:18.077Z,5.00
2022-08-23T04:12:14.788Z,5.15
2022-08-23T04:15:04.912Z,4.50
2022-08-23T04:17:54.304Z,5.00
2022-08-23T04:20:43.054Z,4.97
2022-08-23T04:23:29.198Z,5.13
2022-08-23T04:26:15.654Z,4.90
2022-08-23T04:29:04.419Z,4.93
2022-08-23T04:31:50.226Z,4.97
2022-08-23T04:34:39.895Z,5.03
2022-08-23T04:37:26.573Z,5.47
2022-08-23T04:40:31.433Z,5.30
2022-08-23T04:43:18.284Z,4.80
2022-08-23T04:46:05.609Z,5.10
2022-08-23T04:48:54.186Z,5.10
2022-08-23T04:51:39.940Z,5.47
2022-08-23T04:54:26.409Z,5.43
2022-08-23T04:57:35.344Z,4.57
2022-08-23T05:00:21.683Z,4.97
2022-08-23T05:03:15.941Z,5.93
2022-08-23T05:06:03.887Z,5.30
2022-08-23T05:08:56.013Z,4.97
2022-08-23T05:11:41.979Z,5.43
2022-08-23T05:14:28.258Z,4.35
2022-08-23T05:17:14.528Z,5.10
2022-08-23T05:20:00.250Z,4.60
2022-08-23T05:22:46.162Z,4.70
2022-08-23T05:25:52.438Z,4.90
2022-08-23T05:28:47.947Z,5.22
2022-08-23T05:31:35.329Z,4.72
2022-08-23T05:34:22.947Z,5.30
2022-08-23T05:37:15.278Z,4.75
2022-08-23T05:40:01.126Z,4.70
2022-08-23T05:42:50.223Z,4.60
2022-08-23T05:45:36.201Z,4.85
2022-08-23T05:48:25.139Z,5.50
2022-08-23T05:51:23.072Z,4.60
2022-08-23T05:54:09.668Z,4.88
2022-08-23T05:56:56.514Z,4.63
2022-08-23T05:59:42.393Z,4.28
2022-08-23T06:02:28.190Z,5.25
2022-08-23T06:05:14.006Z,4.57
2022-08-23T06:08:00.977Z,4.40
2022-08-23T06:10:46.976Z,4.53
2022-08-23T06:13:52.154Z,4.65
2022-08-23T06:16:41.360Z,4.53
2022-08-23T06:19:28.825Z,5.05
2022-08-23T06:22:47.496Z,4.65
2022-08-23T06:25:38.146Z,4.78
2022-08-23T06:28:30.685Z,4.63
2022-08-23T06:31:37.357Z,4.32
2022-08-23T06:34:33.660Z,4.57
2022-08-23T06:37:39.511Z,4.20
2022-08-23T06:40:39.168Z,4.50
2022-08-23T06:43:45.066Z,4.38
2022-08-23T06:46:39.242Z,4.32
2022-08-23T06:49:27.848Z,4.40
2022-08-23T06:52:14.603Z,4.38
2022-08-23T06:55:13.605Z,4.75
2022-08-23T06:58:10.446Z,4.43
2022-08-23T07:01:45.127Z,4.45
2022-08-23T07:04:40.449Z,4.93
2022-08-23T07:07:46.518Z,10.20
2022-08-23T07:10:32.395Z,9.95
2022-08-23T07:13:18.802Z,7.78
2022-08-23T07:16:04.770Z,6.75
2022-08-23T07:18:53.057Z,5.70
2022-08-23T07:21:39.560Z,6.30
2022-08-23T07:24:29.486Z,9.00
2022-08-23T07:27:19.046Z,8.70
2022-08-23T07:30:17.760Z,6.60
2022-08-23T07:33:04.214Z,5.70
2022-08-23T07:35:56.568Z,5.20
2022-08-23T07:38:43.914Z,4.78
2022-08-23T07:41:32.733Z,4.57
2022-08-23T07:44:19.921Z,4.43
2022-08-23T07:49:56.578Z,4.82
2022-08-23T07:52:42.054Z,4.50
2022-08-23T07:55:27.605Z,4.95
2022-08-23T07:58:32.528Z,4.50
2022-08-23T08:01:43.748Z,4.43
2022-08-23T08:04:30.329Z,4.80
2022-08-23T08:07:20.559Z,4.90
2022-08-23T08:10:13.449Z,4.35
2022-08-23T08:12:59.422Z,4.40
2022-08-23T08:15:45.474Z,5.20
2022-08-23T08:18:35.727Z,4.55
2022-08-23T08:21:42.054Z,4.20
2022-08-23T08:25:06.786Z,4.70
2022-08-23T08:27:54.280Z,4.30
2022-08-23T08:30:40.320Z,4.43
2022-08-23T08:33:27.528Z,4.47
2022-08-23T08:36:36.230Z,4.45
2022-08-23T08:39:27.990Z,4.03
2022-08-23T08:42:42.935Z,3.88
2022-08-23T08:45:38.541Z,4.70
2022-08-23T08:48:27.564Z,4.65
2022-08-23T08:51:45.414Z,4.13
2022-08-23T08:54:32.746Z,4.37
2022-08-23T08:57:25.515Z,4.45
2022-08-23T09:00:19.942Z,4.35
2022-08-23T09:03:12.170Z,4.78
2022-08-23T09:06:20.507Z,4.60
2022-08-23T09:09:28.341Z,4.10
2022-08-23T09:12:49.555Z,5.07
2022-08-23T09:16:02.360Z,4.28
2022-08-23T09:18:49.025Z,4.35
2022-08-23T09:21:48.076Z,4.80
2022-08-23T09:24:33.620Z,4.43
2022-08-23T09:27:26.784Z,4.53
2022-08-23T09:30:19.137Z,4.75
2022-08-23T09:33:18.493Z,4.32
2022-08-23T09:38:59.387Z,4.35
2022-08-23T09:41:46.062Z,4.38
2022-08-23T09:44:34.303Z,4.22
2022-08-23T09:47:19.903Z,4.47
2022-08-23T09:50:25.465Z,3.60
2022-08-23T09:53:14.698Z,4.10
2022-08-23T09:56:19.660Z,4.15
2022-08-23T09:59:26.402Z,4.60
2022-08-23T10:02:24.279Z,4.22
2022-08-23T10:05:37.148Z,4.22
2022-08-23T10:08:31.840Z,4.10
2022-08-23T10:11:30.259Z,4.30
2022-08-23T10:14:19.561Z,4.10
2022-08-23T10:17:08.122Z,4.57
2022-08-23T10:20:35.666Z,4.00
2022-08-23T10:23:51.137Z,4.15
2022-08-23T10:26:43.830Z,4.32
2022-08-23T10:29:42.408Z,4.07
2022-08-23T10:32:49.984Z,4.22
2022-08-23T10:35:43.198Z,4.00
2022-08-23T10:39:05.170Z,4.60
2022-08-23T10:42:18.816Z,4.90
2022-08-23T10:45:28.979Z,3.92
2022-08-23T10:48:30.483Z,4.20
2022-08-23T10:51:31.494Z,3.83
2022-08-23T10:54:34.708Z,3.65
2022-08-23T10:57:37.556Z,3.95
2022-08-23T11:00:26.986Z,4.35
2022-08-23T11:03:43.336Z,4.20
2022-08-23T11:06:38.316Z,4.00
2022-08-23T11:09:27.493Z,4.05
2022-08-23T11:12:26.946Z,3.90
2022-08-23T11:15:31.308Z,4.03
2022-08-23T11:18:30.094Z,4.05
2022-08-23T11:21:28.585Z,3.83
2022-08-23T11:24:22.349Z,3.83
2022-08-23T11:27:08.349Z,4.50
2022-08-23T11:30:33.370Z,3.83
2022-08-23T11:33:35.571Z,3.92
2022-08-23T11:36:27.406Z,3.70
2022-08-23T11:39:20.268Z,4.10
2022-08-23T11:42:12.346Z,3.80
2022-08-23T11:44:58.444Z,3.97
2022-08-23T11:47:44.704Z,4.20
2022-08-23T11:50:58.039Z,4.07
2022-08-23T11:53:54.142Z,3.83
2022-08-23T11:56:55.358Z,3.75
2022-08-23T12:00:29.122Z,4.10
2022-08-23T12:03:24.927Z,3.97
2022-08-23T12:06:50.563Z,3.67
2022-08-23T12:09:51.629Z,3.85
2022-08-23T12:12:42.788Z,3.22
2022-08-23T12:16:06.509Z,2.80
2022-08-23T12:18:54.892Z,3.58
2022-08-23T12:21:42.730Z,3.50
2022-08-23T12:24:41.664Z,3.63
2022-08-23T12:27:33.165Z,3.60
2022-08-23T12:30:57.208Z,3.80
2022-08-23T12:34:11.042Z,3.45
2022-08-23T12:37:18.463Z,3.50
2022-08-23T12:40:12.604Z,3.85
2022-08-23T12:43:22.635Z,3.30
2022-08-23T12:46:08.811Z,3.58
2022-08-23T12:48:54.545Z,3.78
2022-08-23T12:52:01.338Z,3.55
2022-08-23T12:54:51.632Z,3.35
2022-08-23T12:57:42.304Z,3.15
2022-08-23T13:00:51.650Z,3.20
2022-08-23T13:03:41.799Z,3.35
2022-08-23T13:06:39.805Z,3.65
2022-08-23T13:09:34.651Z,3.20
2022-08-23T13:12:20.924Z,3.78
2022-08-23T13:15:07.158Z,3.75
2022-08-23T13:18:02.005Z,3.67
2022-08-23T13:20:48.081Z,3.90
2022-08-23T13:23:33.674Z,4.22
2022-08-23T13:26:40.046Z,4.00
2022-08-23T13:29:25.983Z,3.83
2022-08-23T13:32:34.093Z,4.00
2022-08-23T13:35:25.528Z,3.55
2022-08-23T13:38:30.207Z,4.50
2022-08-23T13:41:38.646Z,3.85
2022-08-23T13:47:22.533Z,3.88
2022-08-23T13:50:17.158Z,3.38
2022-08-23T13:53:19.574Z,3.90
2022-08-23T13:56:05.612Z,4.40
2022-08-23T13:58:58.046Z,3.97
2022-08-23T14:01:43.846Z,3.88
2022-08-23T14:04:29.535Z,3.90
2022-08-23T14:07:15.862Z,3.60
2022-08-23T14:10:02.173Z,3.92
2022-08-23T14:12:50.265Z,4.10
2022-08-23T14:21:48.953Z,3.55
2022-08-23T14:24:36.460Z,3.83
2022-08-23T14:27:22.608Z,3.55
2022-08-23T14:30:11.623Z,3.90
2022-08-23T14:32:58.616Z,3.63
2022-08-23T14:35:44.952Z,3.60
2022-08-23T14:38:30.851Z,3.67
2022-08-23T14:41:23.018Z,4.20
2022-08-23T14:44:08.698Z,4.03
2022-08-23T14:46:54.759Z,3.78
2022-08-23T14:49:40.853Z,4.07
2022-08-23T14:52:27.026Z,3.50
2022-08-23T14:55:14.524Z,3.65
2022-08-23T14:58:00.197Z,3.70
2022-08-23T15:00:46.605Z,3.80
2022-08-23T15:03:32.190Z,3.42
2022-08-23T15:06:21.853Z,3.47
2022-08-23T15:09:07.462Z,3.95
2022-08-23T15:15:00.927Z,3.38
2022-08-23T15:17:56.336Z,3.60
2022-08-23T15:20:42.683Z,3.67
2022-08-23T15:23:28.671Z,3.40
2022-08-23T15:26:20.108Z,3.65
2022-08-23T15:29:06.461Z,3.95
2022-08-23T15:31:53.314Z,3.75
2022-08-23T15:34:40.138Z,3.63
2022-08-23T15:37:31.993Z,3.45
2022-08-23T15:40:17.861Z,3.67
2022-08-23T15:43:04.220Z,3.83
2022-08-23T15:45:50.319Z,3.47
2022-08-23T15:49:10.975Z,3.78
2022-08-23T15:51:56.643Z,3.45
2022-08-23T15:54:42.706Z,3.75
2022-08-23T15:57:28.952Z,3.80
2022-08-23T16:00:18.306Z,3.80
2022-08-23T16:03:18.997Z,4.55
2022-08-23T16:06:06.845Z,3.40
2022-08-23T16:08:52.878Z,4.15
2022-08-23T16:11:38.474Z,3.95
2022-08-23T16:14:24.097Z,4.30
2022-08-23T16:17:10.165Z,4.10
2022-08-23T16:19:56.000Z,3.65
2022-08-23T16:22:41.994Z,3.60
2022-08-23T16:25:27.754Z,3.40
2022-08-23T16:28:13.611Z,3.58
2022-08-23T16:30:59.403Z,3.92
2022-08-23T16:33:47.787Z,4.13
2022-08-23T16:36:33.661Z,3.88
2022-08-23T16:39:20.388Z,3.85
2022-08-23T16:42:06.837Z,3.42
2022-08-23T16:44:52.476Z,3.53
2022-08-23T16:47:41.117Z,3.53
2022-08-23T16:50:27.606Z,3.77
2022-08-23T16:53:13.501Z,3.63
2022-08-23T16:55:59.329Z,3.58
2022-08-23T16:58:45.150Z,3.58
2022-08-23T17:01:42.550Z,3.85
2022-08-23T17:04:30.222Z,3.60
2022-08-23T17:07:16.462Z,3.63
2022-08-23T17:10:02.141Z,3.78
2022-08-23T17:12:51.284Z,3.78
2022-08-23T17:15:37.525Z,3.50
2022-08-23T17:18:23.852Z,3.67
2022-08-23T17:21:09.796Z,3.88
2022-08-23T17:23:55.759Z,3.72
2022-08-23T17:26:41.809Z,3.47
2022-08-23T17:29:27.705Z,3.83
2022-08-23T17:32:16.624Z,3.53
2022-08-23T17:35:02.703Z,3.88
2022-08-23T17:37:48.471Z,4.22
2022-08-23T17:40:39.590Z,3.63
2022-08-23T17:43:25.226Z,3.38
2022-08-23T17:46:10.811Z,4.18
2022-08-23T17:48:57.815Z,3.75
2022-08-23T17:51:44.258Z,3.90
2022-08-23T17:54:30.148Z,3.38
2022-08-23T17:57:16.129Z,3.40
2022-08-23T18:00:02.109Z,3.58
2022-08-23T18:02:50.068Z,3.33
2022-08-23T18:05:40.001Z,4.00
2022-08-23T18:08:26.375Z,3.78
2022-08-23T18:11:13.331Z,3.03
2022-08-23T18:13:59.208Z,3.70
2022-08-23T18:16:45.496Z,3.58
2022-08-23T18:19:31.621Z,4.03
2022-08-23T18:22:17.207Z,4.28
2022-08-23T18:25:07.132Z,4.20
2022-08-23T18:28:09.368Z,3.83
2022-08-23T18:30:55.721Z,4.30
2022-08-23T18:33:46.314Z,3.88
2022-08-23T18:36:33.797Z,4.07
2022-08-23T18:39:31.321Z,4.07
2022-08-23T18:42:18.403Z,3.63
2022-08-23T18:45:05.537Z,4.40
2022-08-23T18:47:51.313Z,3.80
2022-08-23T18:50:37.034Z,3.95
2022-08-23T18:53:23.085Z,4.32
2022-08-23T18:56:08.576Z,4.10
2022-08-23T18:58:54.491Z,4.00
2022-08-23T19:01:42.385Z,4.75
2022-08-23T19:04:29.738Z,4.50
2022-08-23T19:07:15.666Z,4.63
2022-08-23T19:10:01.462Z,4.05
2022-08-23T19:12:51.890Z,4.15
2022-08-23T19:15:41.772Z,4.40
2022-08-23T19:18:27.838Z,4.60
2022-08-23T19:21:20.741Z,4.10
2022-08-23T19:24:06.714Z,3.90
2022-08-23T19:26:53.259Z,4.05
2022-08-23T19:29:39.106Z,3.92
2022-08-23T19:32:24.950Z,3.92
2022-08-23T19:35:12.795Z,3.65
2022-08-23T19:38:00.182Z,3.92
2022-08-23T19:40:46.090Z,4.03
2022-08-23T19:43:32.564Z,4.43
2022-08-23T19:46:18.736Z,4.05
2022-08-23T19:49:06.957Z,4.28
2022-08-23T19:51:53.093Z,4.85
2022-08-23T19:54:38.786Z,4.20
2022-08-23T19:57:24.476Z,4.10
2022-08-23T20:00:19.352Z,4.00
2022-08-23T20:03:05.717Z,3.90
2022-08-23T20:05:52.914Z,4.60
2022-08-23T20:08:38.502Z,4.13
2022-08-23T20:11:27.844Z,3.88
2022-08-23T20:14:14.658Z,4.00
2022-08-23T20:17:04.445Z,3.85
2022-08-23T20:19:50.545Z,3.65
2022-08-23T20:22:55.358Z,3.40
2022-08-23T20:25:41.532Z,3.80
2022-08-23T20:28:27.380Z,3.60
2022-08-23T20:31:24.569Z,3.50
2022-08-23T20:34:10.292Z,3.80
2022-08-23T20:36:58.319Z,3.40
2022-08-23T20:39:44.260Z,3.65
2022-08-23T20:42:30.488Z,3.53
2022-08-23T20:45:16.174Z,3.47
2022-08-23T20:48:01.954Z,3.85
2022-08-23T20:50:47.892Z,3.75
2022-08-23T20:53:35.175Z,3.67
2022-08-23T20:56:21.160Z,3.70
2022-08-23T20:59:08.087Z,3.80
2022-08-23T21:01:56.637Z,3.92
2022-08-23T21:04:42.526Z,3.65
2022-08-23T21:07:28.174Z,3.47
2022-08-23T21:10:14.096Z,3.35
2022-08-23T21:13:00.508Z,3.33
2022-08-23T21:15:51.207Z,3.30
2022-08-23T21:18:36.778Z,3.53
2022-08-23T21:21:26.525Z,3.25
2022-08-23T21:24:13.038Z,3.30
2022-08-23T21:26:59.138Z,3.08
2022-08-23T21:29:45.277Z,3.40
2022-08-23T21:32:30.956Z,3.28
2022-08-23T21:35:16.910Z,3.25
2022-08-23T21:38:03.164Z,3.35
2022-08-23T21:40:58.144Z,3.05
2022-08-23T21:43:43.993Z,3.08
2022-08-23T21:46:29.933Z,3.47
2022-08-23T21:49:16.654Z,3.72
2022-08-23T21:52:02.758Z,3.22
2022-08-23T21:54:48.830Z,3.38
2022-08-23T21:57:35.129Z,3.42
2022-08-23T22:00:23.271Z,3.72
2022-08-23T22:03:09.895Z,3.60
2022-08-23T22:05:55.733Z,3.08
2022-08-23T22:08:42.445Z,2.90
2022-08-23T22:11:28.416Z,3.30
2022-08-23T22:14:21.580Z,2.97
2022-08-23T22:17:07.604Z,2.75
2022-08-23T22:19:53.770Z,2.90
2022-08-23T22:22:39.574Z,2.85
2022-08-23T22:25:25.545Z,3.28
2022-08-23T22:28:11.380Z,3.00
2022-08-23T22:31:01.407Z,3.63
2022-08-23T22:33:47.694Z,2.83
2022-08-23T22:36:34.131Z,3.08
2022-08-23T22:39:21.275Z,2.70
2022-08-23T22:42:07.209Z,3.20
2022-08-23T22:44:56.275Z,3.40
2022-08-23T22:47:42.134Z,2.90
2022-08-23T22:50:27.913Z,2.92
2022-08-23T22:53:16.428Z,2.90
2022-08-23T22:56:02.560Z,2.70
2022-08-23T22:58:49.767Z,3.30
2022-08-23T23:01:44.393Z,2.67
2022-08-23T23:04:32.406Z,3.05
2022-08-23T23:07:40.782Z,3.22
2022-08-23T23:10:26.586Z,3.15
2022-08-23T23:13:12.120Z,3.30
2022-08-23T23:15:59.641Z,3.30
2022-08-23T23:19:05.598Z,3.17
2022-08-23T23:21:53.616Z,2.63
2022-08-23T23:24:40.754Z,3.05
2022-08-23T23:27:26.680Z,3.22
2022-08-23T23:30:13.010Z,3.28
2022-08-23T23:32:58.787Z,3.40
2022-08-23T23:35:44.974Z,3.08
2022-08-23T23:38:30.620Z,3.25
2022-08-23T23:41:16.349Z,3.40
2022-08-23T23:44:02.524Z,3.10
2022-08-23T23:46:48.321Z,3.10
2022-08-23T23:49:35.483Z,3.35
2022-08-23T23:52:21.284Z,3.03
2022-08-23T23:55:10.113Z,3.20
2022-08-23T23:57:56.602Z,2.90
